Time;durP1;ratioP1;P1;durP2;ratioP2;P2;SDS_P1;SDS_P2;PMS_P1;PMS_P2;Temp;Humidity;BMP_temperature;BMP_pressure;BME280_temperature;BME280_humidity;BME280_pressure;Samples;Min_cycle;Max_cycle;Signal;HPM_P1;HPM_P2
2022/04/06 00:00:17;;;;;;;8.30;7.50;;;10.00;99.90;;;;;;10463080;28;20183;-70
2022/04/06 00:05:17;;;;;;;8.20;7.40;;;10.00;99.90;;;;;;10462839;28;20210;-72
2022/04/06 00:10:18;;;;;;;8.17;7.30;;;9.90;99.90;;;;;;10460107;28;20211;-71
2022/04/06 00:15:18;;;;;;;9.63;7.67;;;9.90;99.90;;;;;;10454887;28;20187;-71
2022/04/06 00:20:19;;;;;;;9.13;6.97;;;9.90;99.90;;;;;;10452871;28;20226;-70
2022/04/06 00:25:20;;;;;;;9.77;7.63;;;9.90;99.90;;;;;;10461362;28;20216;-70
2022/04/06 00:30:20;;;;;;;7.80;7.00;;;9.90;99.90;;;;;;10462243;28;20180;-70
2022/04/06 00:35:32;;;;;;;9.07;8.13;;;10.00;99.90;;;;;;10462091;28;20179;-69
2022/04/06 00:40:33;;;;;;;8.83;7.13;;;10.00;99.90;;;;;;10462127;28;20223;-69
2022/04/06 00:45:34;;;;;;;8.73;7.50;;;10.00;99.90;;;;;;10460527;28;20628;-70
2022/04/06 00:50:36;;;;;;;8.80;7.40;;;10.00;99.90;;;;;;10453525;28;20299;-69
2022/04/06 00:55:38;;;;;;;8.07;7.27;;;10.00;99.90;;;;;;10460065;28;20607;-69
2022/04/06 01:00:38;;;;;;;9.63;7.37;;;10.00;99.90;;;;;;10450848;28;20695;-70
2022/04/06 01:05:39;;;;;;;9.50;8.23;;;10.00;99.90;;;;;;10453468;28;20310;-70
2022/04/06 01:10:39;;;;;;;8.90;8.00;;;10.00;99.90;;;;;;10446464;28;20216;-70
2022/04/06 01:15:40;;;;;;;9.17;8.23;;;10.00;99.90;;;;;;10454665;28;20756;-71
2022/04/06 01:20:41;;;;;;;9.23;8.23;;;10.10;99.90;;;;;;10454293;28;20482;-69
2022/04/06 01:25:41;;;;;;;9.97;8.93;;;10.00;99.90;;;;;;10454470;28;20227;-70
2022/04/06 01:30:42;;;;;;;10.13;8.40;;;10.00;99.90;;;;;;10453674;28;20219;-70
2022/04/06 01:35:47;;;;;;;9.53;8.53;;;9.90;99.90;;;;;;10454395;28;20245;-71
2022/04/06 01:40:48;;;;;;;9.07;8.03;;;9.90;99.90;;;;;;10445711;28;20586;-70
2022/04/06 01:45:49;;;;;;;10.77;9.27;;;9.90;99.90;;;;;;10453445;28;20224;-71
2022/04/06 01:56:09;;;;;;;12.47;8.87;;;9.80;99.90;;;;;;10450467;28;20636;-72
2022/04/06 02:01:09;;;;;;;10.30;9.07;;;9.80;99.90;;;;;;10453901;28;20210;-69
2022/04/06 02:06:13;;;;;;;9.83;8.83;;;9.80;99.90;;;;;;10449692;28;20223;-69
2022/04/06 02:11:13;;;;;;;9.97;8.57;;;9.80;99.90;;;;;;10451044;28;20224;-71
2022/04/06 02:16:14;;;;;;;9.80;8.80;;;9.80;99.90;;;;;;10477932;28;20326;-70
2022/04/06 02:21:14;;;;;;;9.47;8.17;;;9.90;99.90;;;;;;10451940;28;20219;-70
2022/04/06 02:26:15;;;;;;;9.33;8.43;;;9.80;99.90;;;;;;10451143;28;20314;-71
2022/04/06 02:31:16;;;;;;;10.47;9.33;;;9.90;99.90;;;;;;10451922;28;20231;-71
2022/04/06 02:36:17;;;;;;;10.70;9.60;;;9.90;99.90;;;;;;10451020;28;20216;-71
2022/04/06 02:41:18;;;;;;;10.60;9.50;;;9.90;99.90;;;;;;10449797;28;20258;-70
2022/04/06 02:46:19;;;;;;;11.03;9.93;;;9.90;99.90;;;;;;10451259;28;20318;-70
2022/04/06 02:51:19;;;;;;;10.37;9.30;;;10.00;99.90;;;;;;10451454;28;20221;-72
2022/04/06 02:56:20;;;;;;;10.13;9.10;;;10.00;99.90;;;;;;10451267;28;20222;-70
2022/04/06 03:01:21;;;;;;;10.80;9.60;;;10.00;99.90;;;;;;10450320;28;20297;-71
2022/04/06 03:06:21;;;;;;;10.07;9.07;;;10.00;99.90;;;;;;10447064;28;20609;-70
2022/04/06 03:11:25;;;;;;;10.67;9.60;;;10.00;99.90;;;;;;10450426;28;20223;-71
2022/04/06 03:16:25;;;;;;;11.07;9.30;;;10.00;99.90;;;;;;10449336;28;20588;-71
2022/04/06 03:21:26;;;;;;;12.23;9.53;;;10.00;99.90;;;;;;10449125;28;20306;-71
2022/04/06 03:26:26;;;;;;;12.23;9.73;;;10.00;99.90;;;;;;10449566;28;20223;-70
2022/04/06 03:31:27;;;;;;;11.37;10.17;;;10.00;99.90;;;;;;10449116;28;20219;-71
2022/04/06 03:36:30;;;;;;;11.10;9.83;;;10.00;99.90;;;;;;10449754;28;20226;-71
2022/04/06 03:41:31;;;;;;;11.57;10.37;;;10.10;99.90;;;;;;10447884;28;20227;-71
2022/04/06 03:46:32;;;;;;;12.10;10.80;;;10.10;99.90;;;;;;10449267;28;20231;-71
2022/04/06 03:51:32;;;;;;;10.80;9.80;;;10.20;99.90;;;;;;10447118;28;20353;-71
2022/04/06 03:56:33;;;;;;;11.60;9.80;;;10.20;99.90;;;;;;10449520;28;20219;-71
2022/04/06 04:01:37;;;;;;;11.03;9.93;;;10.20;99.90;;;;;;10438589;28;20218;-71
2022/04/06 04:06:37;;;;;;;12.70;9.90;;;10.30;99.90;;;;;;10450492;28;20231;-70
2022/04/06 04:11:38;;;;;;;11.13;9.37;;;10.30;99.90;;;;;;10435843;28;20581;-70
2022/04/06 04:16:38;;;;;;;10.53;9.43;;;10.30;99.90;;;;;;10448413;28;20269;-71
2022/04/06 04:21:39;;;;;;;12.77;9.63;;;10.30;99.90;;;;;;10447986;28;20589;-71
2022/04/06 04:26:39;;;;;;;11.90;10.00;;;10.30;99.90;;;;;;10447350;28;20224;-70
2022/04/06 04:31:40;;;;;;;10.87;9.77;;;10.30;99.90;;;;;;10447855;28;20216;-71
2022/04/06 04:36:41;;;;;;;12.63;9.53;;;10.30;99.90;;;;;;10452305;28;20810;-71
2022/04/06 04:41:41;;;;;;;10.93;9.83;;;10.30;99.90;;;;;;10454414;28;20339;-72
2022/04/06 04:46:42;;;;;;;9.57;8.57;;;10.30;99.90;;;;;;10455155;28;20242;-71
2022/04/06 04:51:43;;;;;;;10.73;9.63;;;10.30;99.90;;;;;;10455684;28;20254;-73
2022/04/06 04:56:43;;;;;;;10.23;8.90;;;10.40;99.90;;;;;;10455997;28;20259;-73
2022/04/06 05:01:44;;;;;;;14.27;9.60;;;10.40;99.90;;;;;;10448191;28;20231;-73
2022/04/06 05:06:45;;;;;;;9.57;8.57;;;10.40;99.90;;;;;;10454721;28;20833;-72
2022/04/06 05:11:46;;;;;;;11.17;9.57;;;10.40;99.90;;;;;;10454781;28;20223;-71
2022/04/06 05:16:50;;;;;;;11.57;9.73;;;10.40;99.90;;;;;;10455486;28;20219;-76
2022/04/06 05:21:51;;;;;;;10.80;9.50;;;10.40;99.90;;;;;;10454073;28;20240;-72
2022/04/06 05:26:51;;;;;;;10.73;9.37;;;10.40;99.90;;;;;;10454222;28;20315;-72
2022/04/06 05:31:52;;;;;;;11.63;10.47;;;10.40;99.90;;;;;;10456091;28;20735;-72
2022/04/06 05:36:53;;;;;;;11.10;9.97;;;10.40;99.90;;;;;;10452321;28;20219;-73
2022/04/06 05:41:53;;;;;;;11.00;9.30;;;10.50;99.90;;;;;;10453826;28;20222;-72
2022/04/06 05:46:54;;;;;;;11.37;10.20;;;10.60;99.90;;;;;;10452088;28;20236;-73
2022/04/06 05:51:54;;;;;;;11.53;9.57;;;10.70;99.90;;;;;;10440547;28;20271;-72
2022/04/06 05:56:55;;;;;;;12.17;9.57;;;10.80;99.90;;;;;;10452413;28;20227;-73
2022/04/06 06:01:56;;;;;;;11.87;10.67;;;10.80;99.90;;;;;;10451204;28;20212;-71
2022/04/06 06:07:00;;;;;;;11.47;9.33;;;10.90;99.90;;;;;;10454486;28;20216;-72
2022/04/06 06:12:03;;;;;;;13.53;9.17;;;11.00;99.90;;;;;;10451235;28;20220;-72
2022/04/06 06:17:03;;;;;;;10.13;8.47;;;11.00;99.90;;;;;;10458657;28;20803;-72
2022/04/06 06:22:04;;;;;;;11.80;7.97;;;11.10;99.90;;;;;;10455767;28;20288;-72
2022/04/06 06:27:04;;;;;;;12.03;8.37;;;11.30;99.90;;;;;;10452801;28;20254;-71
2022/04/06 06:32:06;;;;;;;12.70;7.70;;;11.30;99.90;;;;;;10451919;28;20226;-72
2022/04/06 06:37:07;;;;;;;9.47;7.27;;;11.50;99.90;;;;;;10451631;28;20284;-76
2022/04/06 06:42:09;;;;;;;9.20;6.80;;;12.00;99.90;;;;;;10451661;28;20862;-73
2022/04/06 06:47:09;;;;;;;8.10;6.53;;;12.20;99.90;;;;;;10450727;28;20228;-71
2022/04/06 06:52:10;;;;;;;10.07;6.87;;;12.20;99.90;;;;;;10451296;28;20227;-72
2022/04/06 06:57:12;;;;;;;9.00;5.33;;;12.20;99.90;;;;;;10451142;28;21011;-72
2022/04/06 07:02:12;;;;;;;8.97;5.33;;;12.40;99.90;;;;;;10450932;28;20702;-71
2022/04/06 07:07:13;;;;;;;11.13;4.97;;;13.10;99.90;;;;;;10449672;28;20228;-71
2022/04/06 07:12:13;;;;;;;7.83;4.73;;;13.10;99.90;;;;;;10479724;28;20216;-71
2022/04/06 07:17:16;;;;;;;7.73;5.00;;;13.30;99.90;;;;;;10450564;28;20208;-71
2022/04/06 07:22:18;;;;;;;10.97;6.20;;;13.50;99.90;;;;;;10449682;28;20252;-72
2022/04/06 07:27:18;;;;;;;13.83;5.93;;;13.90;99.90;;;;;;10448751;28;20900;-71
2022/04/06 07:32:19;;;;;;;10.53;5.67;;;14.50;99.90;;;;;;10450600;28;20311;-72
2022/04/06 07:37:20;;;;;;;8.47;5.53;;;15.00;99.90;;;;;;10449711;28;20295;-72
2022/04/06 07:42:20;;;;;;;8.60;5.70;;;14.90;99.90;;;;;;10449185;28;20295;-72
2022/04/06 07:47:21;;;;;;;9.07;4.60;;;14.70;99.90;;;;;;10449119;28;20255;-72
2022/04/06 07:52:22;;;;;;;7.33;4.53;;;15.50;99.90;;;;;;10481652;28;20576;-72
2022/04/06 07:57:24;;;;;;;6.17;3.83;;;16.20;99.90;;;;;;10447146;28;20667;-72
2022/04/06 08:02:25;;;;;;;8.40;3.50;;;16.60;99.90;;;;;;10439084;28;20222;-71
2022/04/06 08:07:26;;;;;;;6.87;3.80;;;16.90;99.90;;;;;;10449506;28;20673;-73
2022/04/06 08:12:26;;;;;;;8.00;3.83;;;17.30;99.90;;;;;;10459678;28;20250;-72
2022/04/06 08:17:30;;;;;;;10.17;3.83;;;18.30;94.70;;;;;;10459069;28;20222;-73
2022/04/06 08:22:31;;;;;;;5.90;3.77;;;17.40;93.90;;;;;;10458204;28;20256;-72
2022/04/06 08:27:36;;;;;;;7.50;4.33;;;16.20;95.90;;;;;;10459625;28;20228;-72
2022/04/06 08:32:37;;;;;;;8.57;4.27;;;15.70;97.90;;;;;;10487226;28;20261;-72
2022/04/06 08:37:39;;;;;;;10.30;4.43;;;15.30;99.20;;;;;;10461245;28;20242;-71
2022/04/06 08:42:39;;;;;;;8.37;4.20;;;15.30;99.90;;;;;;10461257;28;20623;-72
2022/04/06 08:47:42;;;;;;;6.30;3.50;;;17.90;97.60;;;;;;10460751;28;20227;-72
2022/04/06 08:52:45;;;;;;;6.80;3.10;;;21.50;78.60;;;;;;10458947;28;20289;-73
2022/04/06 08:57:46;;;;;;;8.63;3.50;;;23.20;56.20;;;;;;10457990;28;20229;-73
2022/04/06 09:02:47;;;;;;;7.50;2.90;;;20.60;61.60;;;;;;10456342;28;20223;-72
2022/04/06 09:07:51;;;;;;;6.63;3.37;;;20.60;60.00;;;;;;10457383;28;20700;-72
2022/04/06 09:13:05;;;;;;;7.33;3.13;;;20.70;60.60;;;;;;10449224;28;20201;-72
2022/04/06 09:18:06;;;;;;;7.53;3.40;;;21.30;58.40;;;;;;10485119;28;20226;-73
2022/04/06 09:23:07;;;;;;;6.90;3.60;;;20.30;59.20;;;;;;10454221;28;20223;-72
2022/04/06 09:28:10;;;;;;;6.27;3.57;;;19.20;62.70;;;;;;10454773;28;20341;-71
2022/04/06 09:33:19;;;;;;;8.13;3.80;;;18.40;66.70;;;;;;10453680;28;20225;-72
2022/04/06 09:38:23;;;;;;;9.43;3.63;;;17.70;70.20;;;;;;10455202;28;20225;-73
2022/04/06 09:43:34;;;;;;;7.03;4.13;;;17.70;72.70;;;;;;10455956;28;20729;-71
2022/04/06 09:49:01;;;;;;;14.13;6.70;;;17.20;73.00;;;;;;10452131;28;20701;-72
2022/04/06 09:54:04;;;;;;;7.90;4.43;;;16.90;76.80;;;;;;10451371;28;20221;-73
2022/04/06 09:59:05;;;;;;;9.87;4.07;;;16.80;78.50;;;;;;10455306;28;20740;-73
2022/04/06 10:04:08;;;;;;;7.33;4.53;;;17.50;74.70;;;;;;10449994;28;20213;-73
2022/04/06 10:09:10;;;;;;;8.17;4.93;;;18.60;69.10;;;;;;10445372;28;20302;-72
2022/04/06 10:14:11;;;;;;;8.80;4.63;;;18.20;69.10;;;;;;10452309;28;20214;-72
2022/04/06 10:19:14;;;;;;;9.27;5.20;;;17.50;72.70;;;;;;10452487;28;20255;-72
2022/04/06 10:24:40;;;;;;;6.17;3.83;;;16.80;75.10;;;;;;10451795;28;20228;-72
2022/04/06 10:30:14;;;;;;;10.77;3.73;;;16.40;76.90;;;;;;10435076;28;20253;-72
2022/04/06 10:35:33;;;;;;;6.90;3.93;;;17.30;78.10;;;;;;10450959;28;20231;-71
2022/04/06 10:40:46;;;;;;;5.80;3.70;;;17.90;73.80;;;;;;10451708;28;20434;-72
2022/04/06 10:45:46;;;;;;;8.60;4.20;;;17.20;75.40;;;;;;10453264;28;20637;-72
2022/04/06 10:50:48;;;;;;;5.83;4.00;;;17.80;75.20;;;;;;10451110;28;20213;-72
2022/04/06 10:56:17;;;;;;;5.70;3.67;;;17.50;73.90;;;;;;10465638;28;20225;-72
2022/04/06 11:01:18;;;;;;;7.77;4.07;;;17.00;75.10;;;;;;10451109;28;20275;-73
2022/04/06 11:06:41;;;;;;;6.27;3.60;;;17.20;73.80;;;;;;10451186;28;20716;-73
2022/04/06 11:11:46;;;;;;;7.60;3.50;;;17.40;73.20;;;;;;10442741;28;20730;-72
2022/04/06 11:16:47;;;;;;;8.33;3.17;;;17.30;70.90;;;;;;10450352;28;20227;-72
2022/04/06 11:21:53;;;;;;;7.53;3.70;;;17.80;69.40;;;;;;10441385;28;20320;-72
2022/04/06 11:26:54;;;;;;;7.23;3.03;;;18.00;69.20;;;;;;10444996;28;20316;-72
2022/04/06 11:32:05;;;;;;;5.37;2.60;;;18.00;66.50;;;;;;10442389;28;20307;-72
2022/04/06 11:37:07;;;;;;;5.37;2.80;;;18.00;65.20;;;;;;10449205;28;20790;-72
2022/04/06 11:42:17;;;;;;;5.13;2.67;;;18.10;64.00;;;;;;10447713;28;20285;-72
2022/04/06 11:47:34;;;;;;;6.03;2.60;;;17.70;66.50;;;;;;10447837;28;20232;-72
2022/04/06 11:52:36;;;;;;;5.00;2.63;;;17.80;64.20;;;;;;10447793;28;20687;-72
2022/04/06 11:57:39;;;;;;;5.80;2.50;;;18.00;64.40;;;;;;10445703;28;20667;-72
2022/04/06 12:02:47;;;;;;;6.70;2.40;;;17.90;64.00;;;;;;10432320;28;20700;-71
2022/04/06 12:08:04;;;;;;;5.33;2.53;;;17.90;63.20;;;;;;10449000;28;20228;-71
2022/04/06 12:13:06;;;;;;;8.20;2.70;;;17.50;64.40;;;;;;10448262;28;20213;-73
2022/04/06 12:18:07;;;;;;;7.50;2.80;;;17.70;65.80;;;;;;10440285;28;20217;-72
2022/04/06 12:23:08;;;;;;;6.23;2.43;;;17.50;67.20;;;;;;10449529;28;20227;-71
2022/04/06 12:28:23;;;;;;;6.10;2.73;;;17.50;66.10;;;;;;10448244;28;20231;-72
2022/04/06 12:33:46;;;;;;;6.40;2.60;;;17.20;66.90;;;;;;10448709;28;20749;-72
2022/04/06 12:38:57;;;;;;;4.37;2.43;;;17.10;68.00;;;;;;10440034;28;20227;-72
2022/04/06 12:43:58;;;;;;;7.07;2.57;;;17.20;67.80;;;;;;10446559;28;20234;-72
2022/04/06 12:49:36;;;;;;;4.50;2.50;;;17.10;69.50;;;;;;10448289;28;20219;-72
2022/04/06 12:54:38;;;;;;;8.33;2.50;;;17.30;67.40;;;;;;10455024;28;20225;-72
2022/04/06 13:00:00;;;;;;;6.80;2.60;;;17.30;68.80;;;;;;10455792;28;20233;-72
2022/04/06 13:05:01;;;;;;;4.63;2.60;;;17.10;69.30;;;;;;10456185;28;20817;-72
2022/04/06 13:10:06;;;;;;;7.80;2.30;;;17.30;68.50;;;;;;10487096;28;20221;-72
2022/04/06 13:15:07;;;;;;;4.80;2.10;;;17.00;69.50;;;;;;10449893;28;20213;-72
2022/04/06 13:20:10;;;;;;;5.83;2.10;;;16.80;70.70;;;;;;10455294;28;20195;-72
2022/04/06 13:25:12;;;;;;;4.07;2.20;;;16.70;70.40;;;;;;10454716;28;20192;-71
2022/04/06 13:30:17;;;;;;;5.27;1.90;;;16.40;69.60;;;;;;10453054;28;20212;-72
2022/04/06 13:35:18;;;;;;;3.43;1.63;;;16.30;68.90;;;;;;10454134;28;20210;-72
2022/04/06 13:40:19;;;;;;;4.60;1.73;;;16.60;70.20;;;;;;10454080;28;20192;-72
2022/04/06 13:45:19;;;;;;;5.63;1.80;;;16.60;72.00;;;;;;10452504;28;20556;-72
2022/04/06 13:50:21;;;;;;;5.03;1.50;;;16.70;71.80;;;;;;10446297;28;20229;-71
2022/04/06 13:55:22;;;;;;;4.17;1.30;;;16.80;69.10;;;;;;10453823;28;20176;-72
2022/04/06 14:00:23;;;;;;;3.83;1.40;;;16.70;69.00;;;;;;10453675;28;20537;-73
2022/04/06 14:05:23;;;;;;;4.20;1.60;;;16.60;69.90;;;;;;10452800;28;20185;-73
2022/04/06 14:10:24;;;;;;;2.77;1.30;;;16.20;71.60;;;;;;10452870;28;20302;-72
2022/04/06 14:15:25;;;;;;;4.13;1.30;;;15.90;72.70;;;;;;10452026;28;20219;-72
2022/04/06 14:20:25;;;;;;;3.80;1.30;;;15.60;72.90;;;;;;10452221;28;20269;-73
2022/04/06 14:25:26;;;;;;;3.53;1.33;;;15.40;74.60;;;;;;10443813;28;20212;-71
2022/04/06 14:30:27;;;;;;;4.07;1.10;;;15.20;75.50;;;;;;10451506;28;20619;-72
2022/04/06 14:35:28;;;;;;;1.13;1.07;;;15.40;76.10;;;;;;10450277;28;20282;-72
2022/04/06 14:40:30;;;;;;;2.47;0.80;;;15.50;74.90;;;;;;10450977;28;20654;-72
2022/04/06 14:45:31;;;;;;;2.43;1.07;;;15.50;74.40;;;;;;10450761;28;20231;-72
2022/04/06 14:50:31;;;;;;;4.00;0.87;;;15.50;75.20;;;;;;10450431;28;20212;-72
2022/04/06 14:55:34;;;;;;;2.97;1.03;;;15.70;74.80;;;;;;10449737;28;20743;-72
2022/04/06 15:00:36;;;;;;;4.07;1.20;;;15.70;73.40;;;;;;10450727;28;20215;-72
2022/04/06 15:05:39;;;;;;;2.57;1.07;;;16.00;73.80;;;;;;10450035;28;20246;-71
2022/04/06 15:10:41;;;;;;;3.60;1.20;;;15.90;72.30;;;;;;10457926;28;20212;-73
2022/04/06 15:15:42;;;;;;;3.23;0.90;;;15.90;73.50;;;;;;10449523;28;20350;-72
2022/04/06 15:20:45;;;;;;;4.57;1.37;;;15.80;74.40;;;;;;10446499;28;20219;-71
2022/04/06 15:25:46;;;;;;;2.60;1.40;;;15.30;75.30;;;;;;10448146;28;20247;-72
2022/04/06 15:30:47;;;;;;;3.17;1.50;;;15.20;77.70;;;;;;10449527;28;20896;-70
2022/04/06 15:41:07;;;;;;;3.63;1.40;;;15.00;78.30;;;;;;10450296;28;20228;-71
2022/04/06 15:46:08;;;;;;;2.20;1.40;;;14.90;80.00;;;;;;10439962;28;20253;-71
2022/04/06 15:51:12;;;;;;;3.27;1.57;;;14.60;79.90;;;;;;10448941;28;20730;-71
2022/04/06 15:56:13;;;;;;;2.77;1.30;;;14.30;82.00;;;;;;10447738;28;20646;-71
2022/04/06 16:01:14;;;;;;;4.07;1.47;;;14.10;82.90;;;;;;10449812;28;20211;-71
2022/04/06 16:06:14;;;;;;;6.47;1.87;;;14.00;83.20;;;;;;10447202;28;20265;-72
2022/04/06 16:11:15;;;;;;;3.23;1.83;;;13.90;82.80;;;;;;10478989;28;20288;-72
2022/04/06 16:16:15;;;;;;;3.17;1.90;;;13.80;83.40;;;;;;10447774;28;20233;-72
2022/04/06 16:21:16;;;;;;;5.60;2.20;;;13.70;84.80;;;;;;10447459;28;20224;-72
2022/04/06 16:26:16;;;;;;;5.00;2.10;;;13.60;85.60;;;;;;10448012;28;20223;-71
2022/04/06 16:31:17;;;;;;;3.63;1.80;;;13.50;85.30;;;;;;10450875;28;20706;-72
2022/04/06 16:36:20;;;;;;;2.53;1.90;;;13.40;86.30;;;;;;10456513;28;20276;-72
2022/04/06 16:41:21;;;;;;;2.07;1.60;;;13.40;86.80;;;;;;10456444;28;20223;-73
2022/04/06 16:46:25;;;;;;;4.00;1.80;;;13.30;87.80;;;;;;10455934;28;20231;-72
2022/04/06 16:56:51;;;;;;;4.73;1.67;;;13.20;89.00;;;;;;10449926;28;20219;-72
2022/04/06 17:01:51;;;;;;;2.33;1.63;;;13.20;89.90;;;;;;10455634;28;20223;-72
2022/04/06 17:06:54;;;;;;;2.30;1.90;;;13.10;90.30;;;;;;10456044;28;20229;-73
2022/04/06 17:11:55;;;;;;;5.37;2.00;;;13.00;90.60;;;;;;10455765;28;20215;-72
2022/04/06 17:16:55;;;;;;;4.73;1.97;;;13.00;90.70;;;;;;10455053;28;20310;-72
2022/04/06 17:21:56;;;;;;;4.67;2.20;;;13.00;90.90;;;;;;10454003;28;20274;-73
2022/04/06 17:26:56;;;;;;;5.07;1.70;;;13.00;91.10;;;;;;10444022;28;20220;-72
2022/04/06 17:31:57;;;;;;;6.17;2.33;;;13.00;91.30;;;;;;10454918;28;20236;-72
2022/04/06 17:36:58;;;;;;;3.23;2.00;;;12.90;91.70;;;;;;10453667;28;20219;-73
2022/04/06 17:41:58;;;;;;;3.10;2.10;;;12.80;91.80;;;;;;10453032;28;20222;-73
2022/04/06 17:46:59;;;;;;;3.87;1.87;;;12.80;92.10;;;;;;10453534;28;20237;-71
2022/04/06 17:52:00;;;;;;;3.63;2.50;;;12.80;92.30;;;;;;10452628;28;20734;-72
2022/04/06 17:57:01;;;;;;;4.13;2.10;;;12.80;92.90;;;;;;10450178;28;20249;-72
2022/04/06 18:02:02;;;;;;;6.00;2.40;;;12.80;92.90;;;;;;10446277;28;20304;-73
2022/04/06 18:07:03;;;;;;;4.40;2.60;;;12.70;92.90;;;;;;10449699;28;20899;-72
2022/04/06 18:17:24;;;;;;;5.20;2.20;;;12.70;93.70;;;;;;10452789;28;20602;-72
2022/04/06 18:22:24;;;;;;;5.70;2.20;;;12.70;94.20;;;;;;10449251;28;20224;-72
2022/04/06 18:27:25;;;;;;;3.57;2.00;;;12.70;94.50;;;;;;10451988;28;20729;-72
2022/04/06 18:32:27;;;;;;;4.37;1.63;;;12.70;94.80;;;;;;10450725;28;20281;-72
2022/04/06 18:37:32;;;;;;;3.60;2.13;;;12.60;95.20;;;;;;10450844;28;20303;-72
2022/04/06 18:42:34;;;;;;;3.10;2.20;;;12.60;95.80;;;;;;10451984;28;20234;-72
2022/04/06 18:47:34;;;;;;;5.27;2.10;;;12.60;96.20;;;;;;10451957;28;20231;-73
2022/04/06 18:52:37;;;;;;;3.50;2.20;;;12.60;96.70;;;;;;10451054;28;20216;-72
2022/04/06 18:57:39;;;;;;;4.37;2.00;;;12.60;97.20;;;;;;10451140;28;20575;-72
2022/04/06 19:02:41;;;;;;;5.37;2.47;;;12.60;97.60;;;;;;10458149;28;20232;-71
2022/04/06 19:07:42;;;;;;;5.23;2.00;;;12.60;98.10;;;;;;10446848;28;20238;-72
2022/04/06 19:12:43;;;;;;;5.47;2.37;;;12.50;98.70;;;;;;10443714;28;20278;-72
2022/04/06 19:17:44;;;;;;;3.37;1.90;;;12.50;99.00;;;;;;10449634;28;20232;-73
2022/04/06 19:22:45;;;;;;;5.23;2.20;;;12.40;99.40;;;;;;10443194;28;20230;-72
2022/04/06 19:27:45;;;;;;;2.93;2.10;;;12.40;99.80;;;;;;10449003;28;20314;-72
2022/04/06 19:32:46;;;;;;;5.97;2.03;;;12.40;99.90;;;;;;10448630;28;20227;-71
2022/04/06 19:37:48;;;;;;;3.83;2.20;;;12.40;99.90;;;;;;10450332;28;20788;-72
2022/04/06 19:42:48;;;;;;;5.67;2.30;;;12.40;99.90;;;;;;10445082;28;20306;-72
2022/04/06 19:47:50;;;;;;;4.77;2.30;;;12.40;99.90;;;;;;10450562;28;20706;-73
2022/04/06 19:52:50;;;;;;;3.93;2.10;;;12.40;99.90;;;;;;10447784;28;20295;-72
2022/04/06 19:57:51;;;;;;;7.63;2.60;;;12.40;99.90;;;;;;10444710;28;20299;-72
2022/04/06 20:02:51;;;;;;;4.30;2.53;;;12.40;99.90;;;;;;10448446;28;20215;-72
2022/04/06 20:07:52;;;;;;;4.70;2.63;;;12.40;99.90;;;;;;10455804;28;20228;-73
2022/04/06 20:12:53;;;;;;;5.57;2.30;;;12.40;99.90;;;;;;10457988;28;20842;-73
2022/04/06 20:17:53;;;;;;;6.43;2.37;;;12.30;99.90;;;;;;10456647;28;20674;-72
2022/04/06 20:22:54;;;;;;;5.47;2.20;;;12.40;99.90;;;;;;10454127;28;20230;-72
2022/04/06 20:27:56;;;;;;;3.40;1.93;;;12.30;99.90;;;;;;10448562;28;20219;-74
2022/04/06 20:32:58;;;;;;;4.17;1.80;;;12.40;99.90;;;;;;10456433;28;20208;-72
2022/04/06 20:37:58;;;;;;;5.07;2.43;;;12.40;99.90;;;;;;10487944;28;20232;-72
2022/04/06 20:42:59;;;;;;;4.03;2.43;;;12.30;99.90;;;;;;10454244;28;20687;-70
2022/04/06 20:47:59;;;;;;;3.13;2.10;;;12.10;99.90;;;;;;10456740;28;20228;-70
2022/04/06 20:53:00;;;;;;;5.20;2.77;;;12.00;99.90;;;;;;10453441;28;20720;-71
2022/04/06 20:58:01;;;;;;;6.23;2.73;;;11.90;99.90;;;;;;10455600;28;20222;-72
2022/04/06 21:03:02;;;;;;;4.17;2.90;;;11.90;99.90;;;;;;10456128;28;20220;-73
2022/04/06 21:08:03;;;;;;;3.20;2.17;;;11.90;99.90;;;;;;10455768;28;20228;-72
2022/04/06 21:13:04;;;;;;;2.03;1.83;;;11.90;99.90;;;;;;10473002;28;20289;-72
2022/04/06 21:18:05;;;;;;;4.33;2.60;;;11.90;99.90;;;;;;10452825;28;20253;-73
2022/04/06 21:23:06;;;;;;;3.63;2.37;;;11.90;99.90;;;;;;10452163;28;20234;-71
2022/04/06 21:28:09;;;;;;;3.83;2.40;;;11.90;99.90;;;;;;10452863;28;20687;-72
2022/04/06 21:33:10;;;;;;;5.63;2.43;;;11.80;99.90;;;;;;10450385;28;20239;-72
2022/04/06 21:38:10;;;;;;;4.73;2.93;;;11.80;99.90;;;;;;10453490;28;20770;-71
2022/04/06 21:43:11;;;;;;;10.23;2.80;;;11.80;99.90;;;;;;10453039;28;20293;-71
2022/04/06 21:48:11;;;;;;;5.03;2.93;;;11.80;99.90;;;;;;10452996;28;20220;-72
2022/04/06 21:53:13;;;;;;;6.97;2.90;;;11.80;99.90;;;;;;10441893;28;20223;-73
2022/04/06 21:58:13;;;;;;;4.00;2.57;;;11.70;99.90;;;;;;10453578;28;20220;-73
2022/04/06 22:03:14;;;;;;;3.57;2.73;;;11.70;99.90;;;;;;10442803;28;20223;-72
2022/04/06 22:08:14;;;;;;;5.30;2.73;;;11.60;99.90;;;;;;10452513;28;20227;-72
2022/04/06 22:13:15;;;;;;;4.93;2.80;;;11.50;99.90;;;;;;10449907;28;20215;-72
2022/04/06 22:18:19;;;;;;;3.30;2.60;;;11.50;99.90;;;;;;10452797;28;20223;-72
2022/04/06 22:23:23;;;;;;;3.27;2.63;;;11.40;99.90;;;;;;10451343;28;20266;-72
2022/04/06 22:28:26;;;;;;;4.30;3.13;;;11.40;99.90;;;;;;10450157;28;20617;-72
2022/04/06 22:33:27;;;;;;;3.60;3.07;;;11.40;99.90;;;;;;10450572;28;20295;-72
2022/04/06 22:38:28;;;;;;;4.73;3.00;;;11.40;99.90;;;;;;10449845;28;20224;-72
2022/04/06 22:43:29;;;;;;;3.70;3.40;;;11.40;99.90;;;;;;10450291;28;20590;-72
2022/04/06 22:48:29;;;;;;;5.90;2.53;;;11.40;99.90;;;;;;10445118;28;20664;-73
2022/04/06 22:53:30;;;;;;;3.77;2.77;;;11.40;99.90;;;;;;10449040;28;20274;-73
2022/04/06 22:58:30;;;;;;;4.90;3.63;;;11.30;99.90;;;;;;10451137;28;20735;-73
2022/04/06 23:03:31;;;;;;;4.63;3.70;;;11.20;99.90;;;;;;10449420;28;20266;-71
2022/04/06 23:08:31;;;;;;;5.10;3.73;;;11.10;99.90;;;;;;10449995;28;20215;-71
2022/04/06 23:13:32;;;;;;;4.50;3.90;;;11.10;99.90;;;;;;10445659;28;20220;-71
2022/04/06 23:18:33;;;;;;;4.00;3.60;;;11.00;99.90;;;;;;10448651;28;20763;-71
2022/04/06 23:23:33;;;;;;;4.10;3.70;;;11.00;99.90;;;;;;10470372;28;20227;-72
2022/04/06 23:28:37;;;;;;;5.73;3.90;;;11.00;99.90;;;;;;10449764;28;20216;-72
2022/04/06 23:33:37;;;;;;;4.40;3.77;;;11.00;99.90;;;;;;10447810;28;20215;-71
2022/04/06 23:38:38;;;;;;;4.30;3.67;;;11.10;99.90;;;;;;10449953;28;20215;-71
2022/04/06 23:43:38;;;;;;;5.90;3.10;;;11.10;99.90;;;;;;10447030;28;20222;-71
2022/04/06 23:48:39;;;;;;;4.50;3.13;;;11.10;99.90;;;;;;10448623;28;20227;-72
2022/04/06 23:53:39;;;;;;;3.70;3.40;;;11.10;99.90;;;;;;10449281;28;20230;-73
2022/04/06 23:58:40;;;;;;;3.97;3.17;;;11.00;99.90;;;;;;10425743;28;20714;-73
